Aérodrome :
LOGIN :

S'inscrire | Disclaimer

   EN    FR    IT 

 










Légende :    VFR   VFR Marginal   IFR   IFR Intensif   IFR Très Intensif
Visi : 
Plafond : 
>= 8 km
>= 3000ft
5 à 8 km
1000 à 3000 ft
1500m à 5 km
500 à 1000 ft
800 à 1500m
200 à 500 ft
< 800m
< 200 ft
Symboles :   Orages  Brouillard  Fortes neiges  Fortes précipitations  Vent > 20 kt
SIGMETs :   Divers  Orages  Givrage  Turbulence  Onde Orograph.  Cendres Volcan.






- Altitude de l'aérodrome : 640 ft
- Code IATA : AOC


EDAC - Altenburg-Nobitz

DERNIER METAR :
  • 011520Z 21006KT 9999 BKN026 BKN031 OVC059 02/M01 Q1016

METARs EXPIRÉS :
  • 011450Z 20007KT 9999 OVC024 02/M01 Q1016
  • 011420Z 19005KT 160V220 9999 OVC022 03/M01 Q1016
  • 011350Z 20006KT 9999 BKN021 OVC066 03/M01 Q1016
  • 011320Z 20007KT 9999 SCT022 OVC067 03/M01 Q1015
  • 011250Z 21008KT 9999 BKN021 OVC067 02/M01 Q1015
  • 011220Z 21007KT 9999 OVC022 03/M01 Q1015

TAF TAF EDAC
Valide du 01 à 15h jusqu'au 02 à 00h UTC


011400Z 0115/0124 20006KT 9999 BKN020
BECMG 0118/0121 14002KT



MET'MAP, la Météo Aéronautique d'un coup d'oeil ! - Copyright ORBIFLY Décembre 2007 - Disclaimer

ORBIFLY MET'MAP TEAM :

Programmation & Développement : Alexandra Zaïnal
Sur une idée originale de : Baudouin d'Aumeries
Assistance à la programmation : Marc-Olivier Méhu
Soutien technique & logistique : Manuel Goepfert

Contact : metmap@orbifly.com




SOURCES & CREDITS :

   NOAA